Time;durP1;ratioP1;P1;durP2;ratioP2;P2;SDS_P1;SDS_P2;PMS_P1;PMS_P2;Temp;Humidity;BMP_temperature;BMP_pressure;BME280_temperature;BME280_humidity;BME280_pressure;Samples;Min_cycle;Max_cycle;Signal;HPM_P1;HPM_P2
2022/01/24 00:00:31;;;;;;;7.90;5.85;;;;;;;;;;5044899;28;20193;-69
2022/01/24 00:02:58;;;;;;;6.00;5.40;;;;;;;;;;5044717;28;20243;-69
2022/01/24 00:05:24;;;;;;;6.13;5.30;;;;;;;;;;5044460;28;20217;-69
2022/01/24 00:07:51;;;;;;;6.10;5.38;;;;;;;;;;5044651;28;20441;-69
2022/01/24 00:10:21;;;;;;;6.90;5.30;;;;;;;;;;5044436;28;20537;-69
2022/01/24 00:12:59;;;;;;;6.10;5.50;;;;;;;;;;5044392;28;20205;-69
2022/01/24 00:15:49;;;;;;;5.78;5.25;;;;;;;;;;5044355;28;20213;-69
2022/01/24 00:18:25;;;;;;;6.28;5.68;;;;;;;;;;5044233;28;20202;-69
2022/01/24 00:29:03;;;;;;;6.40;5.32;;;;;;;;;;5044035;28;20255;-69
2022/01/24 00:31:31;;;;;;;6.70;5.80;;;;;;;;;;5044522;28;20201;-69
2022/01/24 00:33:57;;;;;;;7.88;6.05;;;;;;;;;;5044280;28;20205;-69
2022/01/24 00:36:24;;;;;;;6.00;5.40;;;;;;;;;;5043965;28;20197;-69
2022/01/24 00:38:50;;;;;;;6.22;5.60;;;;;;;;;;5043964;28;20505;-69
2022/01/24 00:41:19;;;;;;;6.85;5.57;;;;;;;;;;5043943;28;20206;-69
2022/01/24 00:44:00;;;;;;;7.18;5.70;;;;;;;;;;5043887;28;20220;-69
2022/01/24 00:46:34;;;;;;;6.28;5.47;;;;;;;;;;5043524;28;20205;-69
2022/01/24 00:49:21;;;;;;;7.18;5.70;;;;;;;;;;5043869;28;20208;-69
2022/01/24 00:54:44;;;;;;;7.10;5.65;;;;;;;;;;5043809;28;20201;-69
2022/01/24 00:57:10;;;;;;;6.28;5.68;;;;;;;;;;5043574;28;20198;-69
2022/01/24 00:59:37;;;;;;;8.00;5.82;;;;;;;;;;5043632;28;20201;-69
2022/01/24 01:02:04;;;;;;;7.65;6.43;;;;;;;;;;5043530;28;20391;-69
2022/01/24 01:04:40;;;;;;;7.28;5.78;;;;;;;;;;5043359;28;20198;-69
2022/01/24 01:07:07;;;;;;;6.95;6.10;;;;;;;;;;5043344;28;20474;-69
2022/01/24 01:20:40;;;;;;;7.93;6.07;;;;;;;;;;5043207;28;20412;-69
2022/01/24 01:23:07;;;;;;;6.40;5.72;;;;;;;;;;5042963;28;20265;-69
2022/01/24 01:25:36;;;;;;;6.70;6.00;;;;;;;;;;5042899;28;20198;-69
2022/01/24 01:28:03;;;;;;;6.28;5.65;;;;;;;;;;5043152;28;20379;-69
2022/01/24 01:30:37;;;;;;;7.03;6.25;;;;;;;;;;5042980;28;20451;-69
2022/01/24 01:33:11;;;;;;;6.32;5.65;;;;;;;;;;5043137;28;20539;-69
2022/01/24 01:35:52;;;;;;;6.75;6.00;;;;;;;;;;5042735;28;20386;-69
2022/01/24 01:38:35;;;;;;;7.03;6.15;;;;;;;;;;5042803;28;20205;-69
2022/01/24 01:55:07;;;;;;;6.85;6.20;;;;;;;;;;5042591;28;20392;-69
2022/01/24 01:57:33;;;;;;;7.28;5.43;;;;;;;;;;5042749;28;20201;-69
2022/01/24 02:00:00;;;;;;;6.95;5.97;;;;;;;;;;5042560;28;20201;-69
2022/01/24 02:02:26;;;;;;;7.05;5.88;;;;;;;;;;5042519;28;20519;-69
2022/01/24 02:04:53;;;;;;;6.75;5.40;;;;;;;;;;5042241;28;20197;-69
2022/01/24 02:07:22;;;;;;;7.05;6.35;;;;;;;;;;5042460;28;20198;-69
2022/01/24 02:09:48;;;;;;;8.13;6.55;;;;;;;;;;5042132;28;20217;-69
2022/01/24 02:12:17;;;;;;;6.57;5.65;;;;;;;;;;5042342;28;20197;-69
2022/01/24 02:14:49;;;;;;;6.28;5.38;;;;;;;;;;5042189;28;20222;-69
2022/01/24 02:17:21;;;;;;;7.53;5.72;;;;;;;;;;5042045;28;20206;-69
2022/01/24 02:20:05;;;;;;;6.90;6.20;;;;;;;;;;5042631;28;20182;-69
2022/01/24 02:22:46;;;;;;;7.18;5.93;;;;;;;;;;5041310;28;20198;-69
2022/01/24 02:25:24;;;;;;;6.10;5.53;;;;;;;;;;5041939;28;20198;-69
2022/01/24 02:27:57;;;;;;;7.40;6.05;;;;;;;;;;5041969;28;20272;-69
2022/01/24 02:30:37;;;;;;;7.22;6.10;;;;;;;;;;5042215;28;20281;-69
2022/01/24 02:33:03;;;;;;;6.20;5.60;;;;;;;;;;5042174;28;20265;-69
2022/01/24 02:35:30;;;;;;;7.07;6.25;;;;;;;;;;5042181;28;20496;-69
2022/01/24 02:38:00;;;;;;;8.50;5.78;;;;;;;;;;5041968;28;20197;-69
2022/01/24 02:40:27;;;;;;;7.00;6.20;;;;;;;;;;5041906;28;20193;-69
2022/01/24 02:48:25;;;;;;;9.02;6.38;;;;;;;;;;5041801;28;20205;-69
2022/01/24 02:53:34;;;;;;;8.88;6.75;;;;;;;;;;5039858;28;20496;-69
2022/01/24 02:56:01;;;;;;;7.22;6.22;;;;;;;;;;5041728;28;20219;-69
2022/01/24 02:58:28;;;;;;;7.28;6.53;;;;;;;;;;5041679;28;20197;-69
2022/01/24 03:00:56;;;;;;;8.55;7.05;;;;;;;;;;5041932;28;20224;-69
2022/01/24 03:03:22;;;;;;;7.72;6.95;;;;;;;;;;5041890;28;20505;-69
2022/01/24 03:05:49;;;;;;;7.07;6.38;;;;;;;;;;5041491;28;20393;-69
2022/01/24 03:08:15;;;;;;;7.50;6.70;;;;;;;;;;5041582;28;20194;-69
2022/01/24 03:10:46;;;;;;;7.57;6.80;;;;;;;;;;5041542;28;20222;-69
2022/01/24 03:15:54;;;;;;;8.45;7.18;;;;;;;;;;5041016;28;20198;-69
2022/01/24 03:18:21;;;;;;;8.73;6.93;;;;;;;;;;5041549;28;20197;-69
2022/01/24 03:20:48;;;;;;;9.30;6.80;;;;;;;;;;5041643;28;20201;-69
2022/01/24 03:23:16;;;;;;;7.72;6.95;;;;;;;;;;5041484;28;20198;-69
2022/01/24 03:25:44;;;;;;;8.35;6.90;;;;;;;;;;5041311;28;20206;-69
2022/01/24 03:28:11;;;;;;;8.20;6.72;;;;;;;;;;5041674;28;20516;-69
2022/01/24 03:30:38;;;;;;;10.50;7.10;;;;;;;;;;5041523;28;20222;-69
2022/01/24 03:33:04;;;;;;;8.25;7.45;;;;;;;;;;5041876;28;20205;-69
2022/01/24 03:35:31;;;;;;;8.30;7.38;;;;;;;;;;5045030;28;20220;-69
2022/01/24 03:37:57;;;;;;;10.25;7.03;;;;;;;;;;5045086;28;20204;-69
2022/01/24 03:40:24;;;;;;;8.57;6.97;;;;;;;;;;5045057;28;20224;-69
2022/01/24 03:42:52;;;;;;;8.57;7.30;;;;;;;;;;5045332;28;20197;-69
2022/01/24 03:45:24;;;;;;;9.20;7.90;;;;;;;;;;5044957;28;20190;-69
2022/01/24 03:48:04;;;;;;;8.57;7.05;;;;;;;;;;5044965;28;20198;-69
2022/01/24 03:50:30;;;;;;;8.43;7.35;;;;;;;;;;5044821;28;20240;-69
2022/01/24 03:52:57;;;;;;;10.02;7.97;;;;;;;;;;5044856;28;20362;-69
2022/01/24 03:55:23;;;;;;;9.05;7.72;;;;;;;;;;5044714;28;20194;-69
2022/01/24 03:57:49;;;;;;;9.60;7.80;;;;;;;;;;5045133;28;20197;-69
2022/01/24 04:00:17;;;;;;;8.48;7.45;;;;;;;;;;5044838;28;20204;-69
2022/01/24 04:02:44;;;;;;;9.40;7.30;;;;;;;;;;5044671;28;20198;-69
2022/01/24 04:05:10;;;;;;;9.80;7.63;;;;;;;;;;5044439;28;20222;-69
2022/01/24 04:07:37;;;;;;;8.65;7.55;;;;;;;;;;5044491;28;20198;-69
2022/01/24 04:10:06;;;;;;;7.47;6.65;;;;;;;;;;5044690;28;20221;-69
2022/01/24 04:12:34;;;;;;;8.38;7.10;;;;;;;;;;5044591;28;20430;-69
2022/01/24 04:15:11;;;;;;;8.77;7.72;;;;;;;;;;5044491;28;20206;-69
2022/01/24 04:17:43;;;;;;;10.23;8.07;;;;;;;;;;5044282;28;20387;-69
2022/01/24 04:22:56;;;;;;;10.05;7.32;;;;;;;;;;5044403;28;20224;-69
2022/01/24 04:25:24;;;;;;;8.05;7.22;;;;;;;;;;5044155;28;20198;-69
2022/01/24 04:27:51;;;;;;;9.20;6.95;;;;;;;;;;5044087;28;20236;-69
2022/01/24 04:30:17;;;;;;;8.02;6.90;;;;;;;;;;5043992;28;20214;-69
2022/01/24 04:32:45;;;;;;;8.32;7.28;;;;;;;;;;5044451;28;20197;-69
2022/01/24 04:35:12;;;;;;;8.73;6.88;;;;;;;;;;5043864;28;20198;-69
2022/01/24 04:37:39;;;;;;;7.75;6.90;;;;;;;;;;5044200;28;20393;-69
2022/01/24 04:40:06;;;;;;;9.18;7.55;;;;;;;;;;5044038;28;20205;-69
2022/01/24 04:42:40;;;;;;;9.45;7.15;;;;;;;;;;5043936;28;20197;-69
2022/01/24 04:51:01;;;;;;;10.38;7.00;;;;;;;;;;5043398;28;20222;-69
2022/01/24 04:54:03;;;;;;;7.70;6.65;;;;;;;;;;5043909;28;20212;-69
2022/01/24 04:56:19;;;;;;;7.85;6.95;;;;;;;;;;5043320;28;20268;-69
2022/01/24 04:58:46;;;;;;;7.63;6.57;;;;;;;;;;5043722;28;20198;-69
2022/01/24 05:01:12;;;;;;;8.13;7.00;;;;;;;;;;5043530;28;20201;-69
2022/01/24 05:03:40;;;;;;;7.88;6.85;;;;;;;;;;5043436;28;20197;-69
2022/01/24 05:06:06;;;;;;;7.55;6.85;;;;;;;;;;5043209;28;20214;-69
2022/01/24 05:08:33;;;;;;;9.20;6.90;;;;;;;;;;5043664;28;20221;-69
2022/01/24 05:11:04;;;;;;;8.48;7.38;;;;;;;;;;5043268;28;20220;-69
2022/01/24 05:24:40;;;;;;;9.95;8.05;;;;;;;;;;5038336;28;20260;-69
2022/01/24 05:27:06;;;;;;;9.07;6.88;;;;;;;;;;5043292;28;20197;-69
2022/01/24 05:29:33;;;;;;;7.07;6.47;;;;;;;;;;5043220;28;20411;-69
2022/01/24 05:31:59;;;;;;;8.30;6.90;;;;;;;;;;5042920;28;20229;-69
2022/01/24 05:34:27;;;;;;;7.97;7.18;;;;;;;;;;5043038;28;20197;-69
2022/01/24 05:36:53;;;;;;;7.95;7.15;;;;;;;;;;5043204;28;20349;-69
2022/01/24 05:39:20;;;;;;;7.68;6.93;;;;;;;;;;5042947;28;20205;-69
2022/01/24 05:41:46;;;;;;;7.97;7.18;;;;;;;;;;5043080;28;20217;-69
2022/01/24 05:44:13;;;;;;;9.98;7.80;;;;;;;;;;5042724;28;20197;-69
2022/01/24 05:46:39;;;;;;;10.18;8.00;;;;;;;;;;5042580;28;20420;-69
2022/01/24 05:49:05;;;;;;;9.23;7.20;;;;;;;;;;5042680;28;20205;-69
2022/01/24 05:51:33;;;;;;;9.48;8.05;;;;;;;;;;5042499;28;20316;-69
2022/01/24 05:54:00;;;;;;;9.43;8.10;;;;;;;;;;5042759;28;20206;-69
2022/01/24 05:56:26;;;;;;;9.73;7.78;;;;;;;;;;5042495;28;20197;-69
2022/01/24 05:58:53;;;;;;;9.80;8.10;;;;;;;;;;5042592;28;20198;-69
2022/01/24 06:01:19;;;;;;;11.15;8.05;;;;;;;;;;5042463;28;20194;-69
2022/01/24 06:03:45;;;;;;;9.27;7.97;;;;;;;;;;5042709;28;20205;-69
2022/01/24 06:06:12;;;;;;;12.52;8.95;;;;;;;;;;5042317;28;20218;-69
2022/01/24 06:08:40;;;;;;;9.75;8.05;;;;;;;;;;5042323;28;20198;-69
2022/01/24 06:11:06;;;;;;;12.10;8.50;;;;;;;;;;5042061;28;20213;-69
2022/01/24 06:13:32;;;;;;;8.65;7.55;;;;;;;;;;5042373;28;20205;-69
2022/01/24 06:15:59;;;;;;;10.55;8.18;;;;;;;;;;5042023;28;20205;-68
2022/01/24 06:18:26;;;;;;;10.43;8.48;;;;;;;;;;5041825;28;20224;-68
2022/01/24 06:20:53;;;;;;;11.85;8.93;;;;;;;;;;5027994;28;20206;-68
2022/01/24 06:23:19;;;;;;;11.07;8.88;;;;;;;;;;5020712;28;20209;-68
2022/01/24 06:25:47;;;;;;;11.30;9.05;;;;;;;;;;5025807;28;20218;-68
2022/01/24 06:28:13;;;;;;;12.65;9.05;;;;;;;;;;5036696;28;20214;-68
2022/01/24 06:30:40;;;;;;;11.77;8.90;;;;;;;;;;5033110;28;20218;-68
2022/01/24 06:33:07;;;;;;;12.30;9.45;;;;;;;;;;5033746;28;20209;-68
2022/01/24 06:35:33;;;;;;;13.05;9.95;;;;;;;;;;5036325;28;20524;-68
2022/01/24 06:38:00;;;;;;;14.52;10.95;;;;;;;;;;5036566;28;20213;-68
2022/01/24 06:40:26;;;;;;;15.88;10.90;;;;;;;;;;5036985;28;20440;-69
2022/01/24 06:42:54;;;;;;;17.73;11.07;;;;;;;;;;5036360;28;20206;-69
2022/01/24 06:45:20;;;;;;;13.98;10.77;;;;;;;;;;5036516;28;20216;-69
2022/01/24 06:47:47;;;;;;;17.17;11.10;;;;;;;;;;5036036;28;20650;-68
2022/01/24 06:50:13;;;;;;;17.00;10.65;;;;;;;;;;5033275;28;20210;-71
2022/01/24 06:52:40;;;;;;;15.65;10.73;;;;;;;;;;5036292;28;20237;-63
2022/01/24 06:55:07;;;;;;;14.82;10.57;;;;;;;;;;5036824;28;20209;-63
2022/01/24 06:57:33;;;;;;;15.82;10.80;;;;;;;;;;5036244;28;20568;-63
2022/01/24 07:00:01;;;;;;;15.23;10.73;;;;;;;;;;5036330;28;20251;-63
2022/01/24 07:02:28;;;;;;;14.40;11.02;;;;;;;;;;5035379;28;20212;-63
2022/01/24 07:04:54;;;;;;;14.43;10.15;;;;;;;;;;5035609;28;20543;-63
2022/01/24 07:07:21;;;;;;;16.55;11.18;;;;;;;;;;5036459;28;20256;-63
2022/01/24 07:09:47;;;;;;;16.67;10.82;;;;;;;;;;5039361;28;20513;-63
2022/01/24 07:12:13;;;;;;;16.63;11.27;;;;;;;;;;5040049;28;20232;-63
2022/01/24 07:14:41;;;;;;;17.90;10.93;;;;;;;;;;5039501;28;20205;-63
2022/01/24 07:17:28;;;;;;;20.52;11.38;;;;;;;;;;5040708;28;20218;-63
2022/01/24 07:19:54;;;;;;;16.30;11.18;;;;;;;;;;5036374;28;20206;-63
2022/01/24 07:22:20;;;;;;;17.42;11.50;;;;;;;;;;5020457;28;20229;-63
2022/01/24 07:24:47;;;;;;;16.30;11.75;;;;;;;;;;5020626;28;20210;-63
2022/01/24 07:27:13;;;;;;;18.58;12.18;;;;;;;;;;5019932;28;20210;-63
2022/01/24 07:29:40;;;;;;;16.25;11.50;;;;;;;;;;5031879;28;20535;-63
2022/01/24 07:32:06;;;;;;;23.73;13.30;;;;;;;;;;5039888;28;20437;-63
2022/01/24 07:34:34;;;;;;;18.00;12.15;;;;;;;;;;5040116;28;20212;-63
2022/01/24 07:37:01;;;;;;;17.60;12.43;;;;;;;;;;5039640;28;20245;-63
2022/01/24 07:39:28;;;;;;;19.67;13.68;;;;;;;;;;5039950;28;20206;-63
2022/01/24 07:42:02;;;;;;;18.27;12.55;;;;;;;;;;5039396;28;20213;-63
2022/01/24 07:44:28;;;;;;;16.58;12.35;;;;;;;;;;5038971;28;20209;-63
2022/01/24 07:46:55;;;;;;;20.90;12.93;;;;;;;;;;5039315;28;20205;-62
2022/01/24 07:49:21;;;;;;;17.67;12.32;;;;;;;;;;5039069;28;20205;-62
2022/01/24 07:51:49;;;;;;;23.65;13.23;;;;;;;;;;5038661;28;20221;-61
2022/01/24 07:54:15;;;;;;;15.88;11.40;;;;;;;;;;5039319;28;20209;-62
2022/01/24 07:56:42;;;;;;;16.83;11.77;;;;;;;;;;5038921;28;20206;-62
2022/01/24 07:59:08;;;;;;;16.25;11.38;;;;;;;;;;5038596;28;20213;-61
2022/01/24 08:01:35;;;;;;;15.80;11.90;;;;;;;;;;5038570;28;20517;-63
2022/01/24 08:04:01;;;;;;;15.55;11.40;;;;;;;;;;5039370;28;20210;-63
2022/01/24 08:06:28;;;;;;;17.80;11.85;;;;;;;;;;5038510;28;20228;-62
2022/01/24 08:08:55;;;;;;;15.73;10.95;;;;;;;;;;5038062;28;20210;-63
2022/01/24 08:11:22;;;;;;;16.17;10.93;;;;;;;;;;5038848;28;20221;-64
2022/01/24 08:13:49;;;;;;;15.93;11.52;;;;;;;;;;5038578;28;20536;-62
2022/01/24 08:16:16;;;;;;;18.15;11.35;;;;;;;;;;5031927;28;20533;-63
2022/01/24 08:18:42;;;;;;;20.23;12.07;;;;;;;;;;5037204;28;20205;-63
2022/01/24 08:21:09;;;;;;;18.20;12.15;;;;;;;;;;5022333;28;20216;-63
2022/01/24 08:23:35;;;;;;;14.25;10.95;;;;;;;;;;5026290;28;20526;-63
2022/01/24 08:26:03;;;;;;;16.88;12.30;;;;;;;;;;5028965;28;20221;-62
2022/01/24 08:28:30;;;;;;;17.20;11.23;;;;;;;;;;5026267;28;20210;-63
2022/01/24 08:30:56;;;;;;;19.65;11.90;;;;;;;;;;5033854;28;20207;-64
2022/01/24 08:33:22;;;;;;;15.95;10.60;;;;;;;;;;5019107;28;20421;-64
2022/01/24 08:35:49;;;;;;;21.33;11.60;;;;;;;;;;5029489;28;20205;-63
2022/01/24 08:38:15;;;;;;;16.20;10.55;;;;;;;;;;5038953;28;20202;-63
2022/01/24 08:40:45;;;;;;;16.20;11.88;;;;;;;;;;5038284;28;21545;-62
2022/01/24 08:43:12;;;;;;;16.20;11.45;;;;;;;;;;5039130;28;20206;-62
2022/01/24 08:45:50;;;;;;;16.08;11.43;;;;;;;;;;5038129;28;20547;-62
2022/01/24 08:48:17;;;;;;;13.70;11.65;;;;;;;;;;5036124;28;20422;-63
2022/01/24 08:50:44;;;;;;;14.18;10.70;;;;;;;;;;5038500;28;20279;-64
2022/01/24 08:53:11;;;;;;;18.20;11.77;;;;;;;;;;5038856;28;20520;-63
2022/01/24 08:55:39;;;;;;;18.02;11.82;;;;;;;;;;5038624;28;20240;-64
2022/01/24 08:58:06;;;;;;;17.75;12.00;;;;;;;;;;5038175;28;20206;-63
2022/01/24 09:00:35;;;;;;;19.02;11.63;;;;;;;;;;5037557;28;20334;-63
2022/01/24 09:03:01;;;;;;;18.33;12.82;;;;;;;;;;5038200;28;20247;-62
2022/01/24 09:05:34;;;;;;;20.02;14.35;;;;;;;;;;5038212;28;20232;-62
2022/01/24 09:08:01;;;;;;;16.33;11.55;;;;;;;;;;5032611;28;20213;-63
2022/01/24 09:10:27;;;;;;;21.75;12.82;;;;;;;;;;5038084;28;20513;-63
2022/01/24 09:12:53;;;;;;;20.23;12.45;;;;;;;;;;5037816;28;20229;-62
2022/01/24 09:15:20;;;;;;;24.98;13.63;;;;;;;;;;5037563;28;20582;-63
2022/01/24 09:17:48;;;;;;;18.83;13.43;;;;;;;;;;5037581;28;20521;-63
2022/01/24 09:20:14;;;;;;;18.00;12.40;;;;;;;;;;5037558;28;20545;-61
2022/01/24 09:22:41;;;;;;;17.27;12.60;;;;;;;;;;5037994;28;20205;-61
2022/01/24 09:25:10;;;;;;;19.00;13.35;;;;;;;;;;5037213;28;20206;-62
2022/01/24 09:27:36;;;;;;;16.17;12.82;;;;;;;;;;5037410;28;20387;-64
2022/01/24 09:30:03;;;;;;;16.52;13.25;;;;;;;;;;5037227;28;20209;-63
2022/01/24 09:32:29;;;;;;;17.25;12.30;;;;;;;;;;5036718;28;20225;-63
2022/01/24 09:34:57;;;;;;;19.17;12.23;;;;;;;;;;5037146;28;20202;-61
2022/01/24 09:37:24;;;;;;;15.73;12.20;;;;;;;;;;5036839;28;20210;-63
2022/01/24 09:39:50;;;;;;;16.45;12.55;;;;;;;;;;5028413;28;20221;-63
2022/01/24 09:42:17;;;;;;;14.82;11.38;;;;;;;;;;5036851;28;20213;-63
2022/01/24 09:44:44;;;;;;;22.23;12.68;;;;;;;;;;5037012;28;20224;-63
2022/01/24 09:47:12;;;;;;;16.00;11.88;;;;;;;;;;5035891;28;20206;-63
2022/01/24 09:49:39;;;;;;;17.73;12.68;;;;;;;;;;5035941;28;20405;-62
2022/01/24 09:52:07;;;;;;;20.58;13.45;;;;;;;;;;5036394;28;20313;-62
2022/01/24 09:54:33;;;;;;;22.88;14.45;;;;;;;;;;5036231;28;20206;-62
2022/01/24 09:57:00;;;;;;;18.48;11.70;;;;;;;;;;5036056;28;20423;-62
2022/01/24 09:59:28;;;;;;;15.27;11.15;;;;;;;;;;5035642;28;20622;-63
2022/01/24 10:01:55;;;;;;;18.23;12.60;;;;;;;;;;5036435;28;20205;-62
2022/01/24 10:04:25;;;;;;;15.50;11.32;;;;;;;;;;5035621;28;20213;-62
2022/01/24 10:06:58;;;;;;;14.20;10.23;;;;;;;;;;5034968;28;20287;-63
2022/01/24 10:09:30;;;;;;;12.43;10.32;;;;;;;;;;5036526;28;20465;-62
2022/01/24 10:12:16;;;;;;;10.32;8.90;;;;;;;;;;5035937;28;20225;-62
2022/01/24 10:17:27;;;;;;;13.73;9.43;;;;;;;;;;5035509;28;20219;-63
2022/01/24 10:19:54;;;;;;;11.32;7.88;;;;;;;;;;5035570;28;20232;-62
2022/01/24 10:22:24;;;;;;;9.73;7.90;;;;;;;;;;5036392;28;20263;-63
2022/01/24 10:24:54;;;;;;;9.30;8.45;;;;;;;;;;5036406;28;20220;-63
2022/01/24 10:27:23;;;;;;;7.22;6.63;;;;;;;;;;5036395;28;20206;-62
2022/01/24 10:29:51;;;;;;;6.75;5.20;;;;;;;;;;5035671;28;20210;-62
2022/01/24 10:32:31;;;;;;;5.40;4.90;;;;;;;;;;5036357;28;20248;-62
2022/01/24 10:35:17;;;;;;;5.55;5.15;;;;;;;;;;5036830;28;20216;-62
2022/01/24 10:37:45;;;;;;;5.30;4.90;;;;;;;;;;5033992;28;20214;-61
2022/01/24 10:40:20;;;;;;;5.28;4.93;;;;;;;;;;5035562;28;20206;-63
2022/01/24 10:42:59;;;;;;;5.03;4.63;;;;;;;;;;5035650;28;20755;-63
2022/01/24 10:45:27;;;;;;;5.78;4.88;;;;;;;;;;5035460;28;20205;-62
2022/01/24 10:47:55;;;;;;;11.05;6.13;;;;;;;;;;5036356;28;20273;-62
2022/01/24 10:50:23;;;;;;;5.68;5.07;;;;;;;;;;5030186;28;20521;-62
2022/01/24 10:52:50;;;;;;;4.43;4.15;;;;;;;;;;5035616;28;20253;-62
2022/01/24 10:55:19;;;;;;;4.85;4.55;;;;;;;;;;5036576;28;20210;-62
2022/01/24 10:57:47;;;;;;;7.75;5.20;;;;;;;;;;5035965;28;20241;-61
2022/01/24 11:00:15;;;;;;;7.63;4.70;;;;;;;;;;5036361;28;20218;-61
2022/01/24 11:02:42;;;;;;;4.18;3.83;;;;;;;;;;5031156;28;20236;-62
2022/01/24 11:05:15;;;;;;;5.13;4.53;;;;;;;;;;5036797;28;20213;-62
2022/01/24 11:07:53;;;;;;;5.75;3.90;;;;;;;;;;5033998;28;20395;-62
2022/01/24 11:10:22;;;;;;;4.68;4.28;;;;;;;;;;5028697;28;20209;-62
2022/01/24 11:12:49;;;;;;;5.38;3.42;;;;;;;;;;5035737;28;20548;-62
2022/01/24 11:15:15;;;;;;;4.10;3.83;;;;;;;;;;5036238;28;21156;-62
2022/01/24 11:17:43;;;;;;;3.40;3.20;;;;;;;;;;5035578;28;20206;-61
2022/01/24 11:20:12;;;;;;;3.95;3.60;;;;;;;;;;5035722;28;20525;-62
2022/01/24 11:22:42;;;;;;;5.22;4.03;;;;;;;;;;5036196;28;20309;-62
2022/01/24 11:25:10;;;;;;;4.57;3.90;;;;;;;;;;5036317;28;20213;-62
2022/01/24 11:27:38;;;;;;;7.28;3.83;;;;;;;;;;5036083;28;20218;-62
2022/01/24 11:30:07;;;;;;;3.60;3.42;;;;;;;;;;5035603;28;20209;-62
2022/01/24 11:32:38;;;;;;;8.65;4.57;;;;;;;;;;5035913;28;20293;-62
2022/01/24 11:35:04;;;;;;;5.50;3.88;;;;;;;;;;5035551;28;20209;-62
2022/01/24 11:37:32;;;;;;;3.08;2.97;;;;;;;;;;5034950;28;20455;-62
2022/01/24 11:39:59;;;;;;;4.40;4.10;;;;;;;;;;5035292;28;20260;-62
2022/01/24 11:42:28;;;;;;;3.10;3.00;;;;;;;;;;5035600;28;20288;-62
2022/01/24 11:44:59;;;;;;;3.20;3.00;;;;;;;;;;5035761;28;20244;-61
2022/01/24 11:47:26;;;;;;;3.25;3.00;;;;;;;;;;5035529;28;20217;-62
2022/01/24 11:49:53;;;;;;;4.85;3.20;;;;;;;;;;5035758;28;20528;-62
2022/01/24 11:52:21;;;;;;;3.85;3.55;;;;;;;;;;5024689;28;20256;-61
2022/01/24 11:54:52;;;;;;;3.65;3.35;;;;;;;;;;5023041;28;20207;-61
2022/01/24 11:57:23;;;;;;;4.22;2.85;;;;;;;;;;5039586;28;20408;-61
2022/01/24 11:59:54;;;;;;;3.15;2.95;;;;;;;;;;5039267;28;20209;-61
2022/01/24 12:02:24;;;;;;;4.65;3.35;;;;;;;;;;5031042;28;20215;-61
2022/01/24 12:04:51;;;;;;;3.80;2.88;;;;;;;;;;5030021;28;20236;-62
2022/01/24 12:07:19;;;;;;;3.63;2.60;;;;;;;;;;5039214;28;20217;-62
2022/01/24 12:09:46;;;;;;;3.05;2.60;;;;;;;;;;5039530;28;20205;-62
2022/01/24 12:12:35;;;;;;;6.35;3.13;;;;;;;;;;5039412;28;20209;-62
2022/01/24 12:15:01;;;;;;;3.60;2.70;;;;;;;;;;5035055;28;20484;-63
2022/01/24 12:17:42;;;;;;;4.07;2.90;;;;;;;;;;5040363;28;20210;-65
2022/01/24 12:20:24;;;;;;;2.80;2.60;;;;;;;;;;5042235;28;20206;-62
2022/01/24 12:22:51;;;;;;;4.20;2.65;;;;;;;;;;5039535;28;20201;-62
2022/01/24 12:25:18;;;;;;;3.35;3.08;;;;;;;;;;5041136;28;20424;-63
2022/01/24 12:27:59;;;;;;;3.20;3.00;;;;;;;;;;5041942;28;20220;-62
2022/01/24 12:30:40;;;;;;;2.75;2.60;;;;;;;;;;5035282;28;20206;-62
2022/01/24 12:33:07;;;;;;;2.65;2.55;;;;;;;;;;5022321;28;20285;-62
2022/01/24 12:35:33;;;;;;;3.65;2.85;;;;;;;;;;5039340;28;20213;-64
2022/01/24 12:38:15;;;;;;;2.42;2.30;;;;;;;;;;5035517;28;20210;-61
2022/01/24 12:40:43;;;;;;;3.92;3.63;;;;;;;;;;5041666;28;20389;-62
2022/01/24 12:43:18;;;;;;;3.50;2.67;;;;;;;;;;5041818;28;20284;-61
2022/01/24 12:48:29;;;;;;;4.63;3.42;;;;;;;;;;5041716;28;20204;-61
2022/01/24 12:50:56;;;;;;;3.35;3.15;;;;;;;;;;5041342;28;20406;-61
2022/01/24 12:53:22;;;;;;;4.18;3.75;;;;;;;;;;5041557;28;20236;-61
2022/01/24 12:55:58;;;;;;;3.58;3.17;;;;;;;;;;5040996;28;20212;-61
2022/01/24 12:58:29;;;;;;;4.72;2.55;;;;;;;;;;5041179;28;20551;-61
2022/01/24 13:00:56;;;;;;;6.25;3.28;;;;;;;;;;5041473;28;20213;-61
2022/01/24 13:03:23;;;;;;;3.95;3.65;;;;;;;;;;5041407;28;20217;-62
2022/01/24 13:05:49;;;;;;;6.63;4.90;;;;;;;;;;5040247;28;20225;-62
2022/01/24 13:08:16;;;;;;;4.15;3.58;;;;;;;;;;5041162;28;20205;-62
2022/01/24 13:10:44;;;;;;;4.10;2.83;;;;;;;;;;5041103;28;20210;-62
2022/01/24 13:13:15;;;;;;;3.20;2.97;;;;;;;;;;5040875;28;20558;-62
2022/01/24 13:21:15;;;;;;;12.18;8.07;;;;;;;;;;5041092;28;20531;-63
2022/01/24 13:23:42;;;;;;;7.90;6.90;;;;;;;;;;5040331;28;20198;-63
2022/01/24 13:26:10;;;;;;;4.10;3.17;;;;;;;;;;5040699;28;20436;-63
2022/01/24 13:28:38;;;;;;;3.33;3.13;;;;;;;;;;5040430;28;20461;-63
2022/01/24 13:31:05;;;;;;;3.67;3.38;;;;;;;;;;5040501;28;20397;-63
2022/01/24 13:33:33;;;;;;;4.80;3.00;;;;;;;;;;5040690;28;20602;-62
2022/01/24 13:36:00;;;;;;;6.03;3.50;;;;;;;;;;5039768;28;20452;-62
2022/01/24 13:38:27;;;;;;;4.70;3.55;;;;;;;;;;5040388;28;20382;-62
2022/01/24 13:40:56;;;;;;;3.42;3.13;;;;;;;;;;5040036;28;20214;-62
2022/01/24 13:43:31;;;;;;;3.45;3.20;;;;;;;;;;5040476;28;20209;-63
2022/01/24 13:45:59;;;;;;;3.97;3.22;;;;;;;;;;5040026;28;20209;-62
2022/01/24 13:48:26;;;;;;;3.30;3.10;;;;;;;;;;5040139;28;20212;-63
2022/01/24 13:50:54;;;;;;;4.47;3.33;;;;;;;;;;5040272;28;20198;-64
2022/01/24 13:53:30;;;;;;;6.32;3.50;;;;;;;;;;5039853;28;20221;-63
2022/01/24 13:55:58;;;;;;;4.65;3.22;;;;;;;;;;5037887;28;20202;-63
2022/01/24 13:58:24;;;;;;;5.03;3.20;;;;;;;;;;5040095;28;20254;-63
2022/01/24 14:00:56;;;;;;;3.60;2.83;;;;;;;;;;5040346;28;20404;-63
2022/01/24 14:03:24;;;;;;;3.40;2.90;;;;;;;;;;5039793;28;20202;-64
2022/01/24 14:06:05;;;;;;;4.40;3.15;;;;;;;;;;5040046;28;20221;-63
2022/01/24 14:08:31;;;;;;;4.53;3.08;;;;;;;;;;5020066;28;20229;-63
2022/01/24 14:11:10;;;;;;;3.47;3.28;;;;;;;;;;5020273;28;20207;-62
2022/01/24 14:13:37;;;;;;;5.55;3.33;;;;;;;;;;5021446;28;20226;-64
2022/01/24 14:16:10;;;;;;;4.70;3.08;;;;;;;;;;5039741;28;20214;-64
2022/01/24 14:18:38;;;;;;;3.92;3.65;;;;;;;;;;5020202;28;20435;-63
2022/01/24 14:21:09;;;;;;;3.70;3.40;;;;;;;;;;5020269;28;20375;-64
2022/01/24 14:23:36;;;;;;;8.30;3.65;;;;;;;;;;5019745;28;20509;-63
2022/01/24 14:26:13;;;;;;;11.05;5.35;;;;;;;;;;5019606;28;20206;-64
2022/01/24 14:28:39;;;;;;;4.90;3.60;;;;;;;;;;5033552;28;20532;-62
2022/01/24 14:31:11;;;;;;;5.22;3.90;;;;;;;;;;5039723;28;20545;-62
2022/01/24 14:33:40;;;;;;;5.57;4.07;;;;;;;;;;5039727;28;20360;-62
2022/01/24 14:36:09;;;;;;;4.45;3.72;;;;;;;;;;5038752;28;20206;-64
2022/01/24 14:38:37;;;;;;;4.28;3.88;;;;;;;;;;5036822;28;20214;-63
2022/01/24 14:41:06;;;;;;;3.95;3.65;;;;;;;;;;5036560;28;20217;-63
2022/01/24 14:46:17;;;;;;;7.97;3.90;;;;;;;;;;5036143;28;20223;-63
2022/01/24 14:48:47;;;;;;;6.18;4.65;;;;;;;;;;5036869;28;20217;-63
2022/01/24 14:51:13;;;;;;;6.30;4.68;;;;;;;;;;5036168;28;20210;-63
2022/01/24 14:53:39;;;;;;;6.70;4.65;;;;;;;;;;5036804;28;20225;-63
2022/01/24 14:56:06;;;;;;;9.60;4.13;;;;;;;;;;5036386;28;20205;-63
2022/01/24 14:58:32;;;;;;;4.85;4.45;;;;;;;;;;5036469;28;20210;-63
2022/01/24 15:00:59;;;;;;;6.88;4.03;;;;;;;;;;5036223;28;20210;-63
2022/01/24 15:03:25;;;;;;;5.30;4.05;;;;;;;;;;5036566;28;20205;-63
2022/01/24 15:05:54;;;;;;;4.40;3.92;;;;;;;;;;5036105;28;20237;-64
2022/01/24 15:08:21;;;;;;;4.38;3.97;;;;;;;;;;5036391;28;20281;-64
2022/01/24 15:10:47;;;;;;;6.93;4.10;;;;;;;;;;5036142;28;20213;-63
2022/01/24 15:13:16;;;;;;;5.65;3.95;;;;;;;;;;5035715;28;20217;-63
2022/01/24 15:15:52;;;;;;;4.88;3.75;;;;;;;;;;5036048;28;20213;-63
2022/01/24 15:24:24;;;;;;;5.22;4.28;;;;;;;;;;5036469;28;20264;-63
2022/01/24 15:26:49;;;;;;;7.30;4.57;;;;;;;;;;5035940;28;20205;-63
2022/01/24 15:29:17;;;;;;;4.57;4.00;;;;;;;;;;5036914;28;20209;-64
2022/01/24 15:31:44;;;;;;;8.77;4.70;;;;;;;;;;5039860;28;20267;-62
2022/01/24 15:34:10;;;;;;;9.40;5.05;;;;;;;;;;5040126;28;20225;-63
2022/01/24 15:36:40;;;;;;;5.88;4.85;;;;;;;;;;5037921;28;20260;-64
2022/01/24 15:39:07;;;;;;;4.80;4.40;;;;;;;;;;5039091;28;20217;-64
2022/01/24 15:41:43;;;;;;;5.35;4.45;;;;;;;;;;5038973;28;20210;-61
2022/01/24 15:44:32;;;;;;;4.75;4.45;;;;;;;;;;5039005;28;20256;-62
2022/01/24 15:47:00;;;;;;;4.63;4.22;;;;;;;;;;5038975;28;20241;-61
2022/01/24 15:49:26;;;;;;;5.28;4.80;;;;;;;;;;5039060;28;20216;-61
2022/01/24 15:51:54;;;;;;;5.00;4.60;;;;;;;;;;5038826;28;20206;-61
2022/01/24 15:54:23;;;;;;;4.18;3.75;;;;;;;;;;5038920;28;20232;-61
2022/01/24 15:59:34;;;;;;;8.80;4.85;;;;;;;;;;5019254;28;20221;-62
2022/01/24 16:02:00;;;;;;;6.63;4.57;;;;;;;;;;5018594;28;20206;-60
2022/01/24 16:04:26;;;;;;;7.65;4.82;;;;;;;;;;5025612;28;20215;-61
2022/01/24 16:06:54;;;;;;;5.60;5.03;;;;;;;;;;5038856;28;20226;-61
2022/01/24 16:09:22;;;;;;;5.47;4.25;;;;;;;;;;5038701;28;20216;-62
2022/01/24 16:11:49;;;;;;;5.50;4.75;;;;;;;;;;5037704;28;20209;-62
2022/01/24 16:14:15;;;;;;;7.10;4.57;;;;;;;;;;5025731;28;20252;-62